createdAt,value
2018-01-31T01:54:02.193Z,67.92
2018-01-31T01:59:03.506Z,67.49
2018-01-31T02:04:04.843Z,67.49
2018-01-31T02:09:06.176Z,67.29
2018-01-31T02:14:07.771Z,67.05
2018-01-31T02:19:09.866Z,67.01
2018-01-31T02:24:11.921Z,66.89
2018-01-31T02:29:13.270Z,66.74
2018-01-31T02:34:15.364Z,66.89
2018-01-31T02:39:35.056Z,66.63
2018-01-31T02:44:36.371Z,66.63
2018-01-31T02:49:37.675Z,66.65
2018-01-31T02:54:39.727Z,66.62
2018-01-31T02:59:41.054Z,66.65
2018-01-31T03:04:42.358Z,66.25
2018-01-31T03:09:43.690Z,65.92
2018-01-31T03:14:44.994Z,65.83
2018-01-31T03:19:46.307Z,65.72
2018-01-31T03:24:47.624Z,65.85
2018-01-31T03:29:49.839Z,66.11
2018-01-31T03:34:51.193Z,66.48
2018-01-31T03:39:52.519Z,66.79
2018-01-31T03:44:53.851Z,66.92
2018-01-31T03:49:55.195Z,66.98
2018-01-31T03:54:56.550Z,67.17
2018-01-31T03:59:57.883Z,67.37
2018-01-31T04:04:59.203Z,67.64
2018-01-31T04:10:00.542Z,67.52
2018-01-31T04:15:02.633Z,67.78
2018-01-31T04:20:03.962Z,68.44
2018-01-31T04:25:05.285Z,68.53
2018-01-31T04:30:06.602Z,68.66
2018-01-31T04:35:07.957Z,69.09
2018-01-31T04:40:09.753Z,69.43
2018-01-31T04:45:11.520Z,69.62
2018-01-31T04:50:13.153Z,70.13
2018-01-31T04:55:14.474Z,70.80
2018-01-31T05:00:15.808Z,71.22
2018-01-31T05:05:17.180Z,72.03
2018-01-31T05:10:18.619Z,73.00
2018-01-31T05:15:19.952Z,73.77
2018-01-31T05:20:22.043Z,74.37
2018-01-31T05:25:23.355Z,74.48
2018-01-31T05:30:25.414Z,74.92
2018-01-31T05:35:26.752Z,75.45
2018-01-31T05:40:28.070Z,75.96
2018-01-31T05:45:29.411Z,76.35
2018-01-31T05:50:31.610Z,77.17
2018-01-31T05:55:34.026Z,77.61
2018-01-31T06:00:36.143Z,77.54
2018-01-31T06:05:38.879Z,77.90
2018-01-31T06:10:41.724Z,78.50
2018-01-31T06:15:43.536Z,78.71
2018-01-31T06:20:44.991Z,78.71
2018-01-31T06:25:46.929Z,78.68
2018-01-31T06:30:53.494Z,78.61
2018-01-31T06:35:54.932Z,78.71
2018-01-31T06:40:56.422Z,78.65
2018-01-31T06:45:57.765Z,78.94
2018-01-31T06:50:59.072Z,78.83
2018-01-31T06:56:01.140Z,78.67
2018-01-31T07:01:02.568Z,78.83
2018-01-31T07:06:04.627Z,78.45
2018-01-31T07:11:05.949Z,78.44
2018-01-31T07:16:08.035Z,78.51
2018-01-31T07:21:09.378Z,78.64
2018-01-31T07:26:10.708Z,78.48
2018-01-31T07:31:12.096Z,78.62
2018-01-31T07:36:13.463Z,78.55
2018-01-31T07:41:15.554Z,78.42
2018-01-31T07:46:17.606Z,77.98
2018-01-31T07:51:19.128Z,78.14
2018-01-31T07:56:20.512Z,77.87
2018-01-31T08:01:21.850Z,77.86
2018-01-31T08:06:23.170Z,77.47
2018-01-31T08:11:24.897Z,77.46
2018-01-31T08:16:27.074Z,77.59
2018-01-31T08:21:28.864Z,77.21
2018-01-31T08:26:30.908Z,77.03
2018-01-31T08:31:33.261Z,77.00
2018-01-31T08:36:34.630Z,76.87
2018-01-31T08:41:37.463Z,76.65
2018-01-31T08:46:40.018Z,76.49
2018-01-31T08:51:42.155Z,76.35
2018-01-31T08:56:43.467Z,75.93
2018-01-31T09:01:44.759Z,75.89
2018-01-31T09:06:46.104Z,76.07
2018-01-31T09:11:47.431Z,76.17
2018-01-31T09:16:48.756Z,75.72
2018-01-31T09:21:50.121Z,75.64
2018-01-31T09:26:52.211Z,75.67
2018-01-31T09:31:53.602Z,75.62
2018-01-31T09:36:55.232Z,75.88
2018-01-31T09:41:56.603Z,76.42
2018-01-31T09:46:57.959Z,76.33
2018-01-31T09:51:59.328Z,76.16
2018-01-31T09:57:00.633Z,75.97
2018-01-31T10:02:01.956Z,76.09
2018-01-31T10:07:04.016Z,75.97
2018-01-31T10:12:05.438Z,76.18
2018-01-31T10:17:06.803Z,75.61
2018-01-31T10:22:08.203Z,74.66
2018-01-31T10:27:09.542Z,73.40
2018-01-31T10:32:10.939Z,72.68
2018-01-31T10:37:12.350Z,72.13
2018-01-31T10:42:13.725Z,72.36
2018-01-31T10:47:15.103Z,72.15
2018-01-31T10:52:16.429Z,72.02
2018-01-31T10:57:28.763Z,72.04
2018-01-31T11:02:19.219Z,72.03
2018-01-31T11:07:20.596Z,72.29
2018-01-31T11:12:21.939Z,72.94
2018-01-31T11:17:24.015Z,72.54
2018-01-31T11:22:25.350Z,72.86
2018-01-31T11:27:27.500Z,73.58
2018-01-31T11:32:28.858Z,73.73
2018-01-31T11:37:30.478Z,74.09
2018-01-31T11:42:31.854Z,73.41
2018-01-31T11:47:33.217Z,73.37
2018-01-31T11:52:35.547Z,73.09
2018-01-31T11:57:36.872Z,72.84
2018-01-31T12:02:38.216Z,72.46
2018-01-31T12:07:40.655Z,72.31
2018-01-31T12:12:46.774Z,72.80
2018-01-31T12:17:48.410Z,73.15
2018-01-31T12:23:09.946Z,73.77
2018-01-31T12:28:25.285Z,74.71
2018-01-31T12:33:45.012Z,74.84
2018-01-31T12:38:58.187Z,75.66
2018-01-31T12:44:00.166Z,73.17
2018-01-31T12:49:02.582Z,73.36
2018-01-31T12:54:22.577Z,75.33
2018-01-31T12:59:42.478Z,76.17
2018-01-31T13:05:02.207Z,76.35
2018-01-31T13:10:21.916Z,77.03
2018-01-31T13:15:40.374Z,77.34
2018-01-31T13:32:27.503Z,77.82
2018-01-31T13:37:54.825Z,78.04
2018-01-31T13:48:55.859Z,77.84
2018-01-31T13:54:16.689Z,77.66
2018-01-31T13:59:36.558Z,77.45
2018-01-31T14:04:56.239Z,77.25
2018-01-31T14:10:16.030Z,76.85
2018-01-31T14:15:35.870Z,76.59
2018-01-31T14:20:55.830Z,76.09
2018-01-31T14:26:15.599Z,76.31
2018-01-31T14:31:35.253Z,76.67
2018-01-31T14:36:36.425Z,76.28
2018-01-31T14:41:37.513Z,75.86
2018-01-31T14:46:39.868Z,75.56
2018-01-31T14:51:41.365Z,75.55
2018-01-31T14:56:42.502Z,75.92
2018-01-31T15:01:43.597Z,75.89
2018-01-31T15:06:45.031Z,75.89
2018-01-31T15:11:46.554Z,75.86
2018-01-31T15:16:48.022Z,75.75
2018-01-31T15:21:49.139Z,76.03
2018-01-31T15:26:50.693Z,76.05
2018-01-31T15:31:51.834Z,76.17
2018-01-31T15:36:52.952Z,76.35
2018-01-31T15:41:54.757Z,76.08
2018-01-31T15:46:56.620Z,76.27
2018-01-31T15:51:57.725Z,76.86
2018-01-31T15:56:59.953Z,76.62
2018-01-31T16:02:01.034Z,77.09
2018-01-31T16:07:03.066Z,77.13
2018-01-31T16:12:04.467Z,77.00
2018-01-31T16:17:05.839Z,77.13
2018-01-31T16:22:08.041Z,76.97
2018-01-31T16:27:21.631Z,76.74
2018-01-31T16:32:41.459Z,76.82
2018-01-31T16:37:43.443Z,76.87
2018-01-31T16:42:45.375Z,76.56
2018-01-31T16:47:47.002Z,76.42
2018-01-31T16:52:48.891Z,76.76
2018-01-31T16:57:50.512Z,76.50
2018-01-31T17:02:51.843Z,76.20
2018-01-31T17:07:53.135Z,76.22
2018-01-31T17:12:54.435Z,75.82
2018-01-31T17:17:55.978Z,76.09
2018-01-31T17:22:58.085Z,73.71
2018-01-31T17:28:00.007Z,75.01
2018-01-31T17:33:01.683Z,75.74
2018-01-31T17:38:03.073Z,75.90
2018-01-31T17:43:04.402Z,75.95
2018-01-31T17:48:05.800Z,75.57
2018-01-31T17:53:07.526Z,75.34
2018-01-31T17:58:11.621Z,75.40
2018-01-31T18:03:13.752Z,75.37
2018-01-31T18:08:15.071Z,75.53
2018-01-31T18:13:16.998Z,75.60
2018-01-31T18:18:18.311Z,75.81
2018-01-31T18:23:20.778Z,75.88
2018-01-31T18:28:22.886Z,75.85
2018-01-31T18:33:24.274Z,75.62
2018-01-31T18:38:25.567Z,75.38
2018-01-31T18:43:26.883Z,75.28
2018-01-31T18:48:28.187Z,75.34
2018-01-31T18:53:30.235Z,75.26
2018-01-31T18:58:31.543Z,75.26
2018-01-31T19:03:33.802Z,75.18
2018-01-31T19:08:35.831Z,75.24
2018-01-31T19:13:37.233Z,75.37
2018-01-31T19:18:38.546Z,75.31
2018-01-31T19:23:40.347Z,75.28
2018-01-31T19:28:42.998Z,75.29
2018-01-31T19:33:44.528Z,75.40
2018-01-31T19:38:46.025Z,75.18
2018-01-31T19:43:47.631Z,74.97
2018-01-31T19:48:49.978Z,75.19
2018-01-31T19:53:51.298Z,75.30
2018-01-31T19:58:53.905Z,75.20
2018-01-31T20:03:56.014Z,75.32
2018-01-31T20:08:58.094Z,75.63
2018-01-31T20:14:00.884Z,75.89
2018-01-31T20:19:02.459Z,76.13
2018-01-31T20:24:03.840Z,76.27
2018-01-31T20:29:06.428Z,76.39
2018-01-31T20:34:07.913Z,76.82
2018-01-31T20:39:09.285Z,76.58
2018-01-31T20:44:10.653Z,76.70
2018-01-31T20:49:12.303Z,76.69
2018-01-31T20:54:14.391Z,76.73
2018-01-31T20:59:16.359Z,76.87
2018-01-31T21:04:18.040Z,76.69
2018-01-31T21:09:20.666Z,77.17
2018-01-31T21:14:22.006Z,77.18
2018-01-31T21:19:23.340Z,77.31
2018-01-31T21:24:24.697Z,77.34
2018-01-31T21:29:26.035Z,77.32
2018-01-31T21:34:27.527Z,77.35
2018-01-31T21:39:29.790Z,77.55
2018-01-31T21:44:31.120Z,77.13
2018-01-31T21:49:32.444Z,77.01
2018-01-31T21:54:33.945Z,77.15
2018-01-31T21:59:35.254Z,77.08
2018-01-31T22:04:36.595Z,76.76
2018-01-31T22:09:37.922Z,76.99
2018-01-31T22:14:39.236Z,76.92
2018-01-31T22:19:41.333Z,76.66
2018-01-31T22:24:42.643Z,76.32
2018-01-31T22:29:43.987Z,76.03
2018-01-31T22:34:45.384Z,75.56
2018-01-31T22:39:46.713Z,75.52
2018-01-31T22:44:48.768Z,75.13
2018-01-31T22:49:50.120Z,74.77
2018-01-31T22:54:52.165Z,74.11
2018-01-31T22:59:53.490Z,73.09
2018-01-31T23:04:54.823Z,72.41
2018-01-31T23:09:56.122Z,72.10
2018-01-31T23:14:57.427Z,72.24
2018-01-31T23:19:58.750Z,72.14
2018-01-31T23:25:00.083Z,72.17
2018-01-31T23:30:01.404Z,72.33
2018-01-31T23:35:02.823Z,72.48
2018-01-31T23:40:04.886Z,72.83
2018-01-31T23:45:06.203Z,73.15
2018-01-31T23:50:07.573Z,73.49
2018-01-31T23:55:08.892Z,73.67
